Time,TemperatureF,DewpointF,PressureIn,WindDirection,WindDirectionDegrees,WindSpeedMPH,WindSpeedGustMPH,Humidity,HourlyPrecipIn,Conditions,Clouds,dailyrainin,SoftwareType,DateUTC
2013-09-23 07:30:00,47.4,41.5,29.85,North,0,0.0,0.0,80,0.00,,---,0.00,VWS V14.01,2013-09-23 11:30:00,
2013-09-23 08:03:00,48.4,41.9,29.85,South,169,0.0,0.0,78,0.00,,---,0.00,VWS V14.01,2013-09-23 12:03:00,
2013-09-23 08:04:00,48.5,42.0,29.85,SSE,168,0.0,0.0,78,0.00,,---,0.00,VWS V14.01,2013-09-23 12:04:00,
2013-09-23 08:05:00,48.5,41.6,29.85,SSE,168,0.0,0.0,77,0.00,,---,0.00,VWS V14.01,2013-09-23 12:05:00,
2013-09-23 08:10:00,48.8,41.9,29.85,SSE,167,0.0,0.0,77,0.00,,---,0.00,VWS V14.01,2013-09-23 12:10:00,
2013-09-23 08:15:00,49.1,42.2,29.85,SSE,165,0.0,0.0,77,0.00,,---,0.00,VWS V14.01,2013-09-23 12:15:00,
2013-09-23 08:18:00,49.2,41.6,29.85,SSE,164,0.0,0.0,75,0.00,,---,0.00,VWS V14.01,2013-09-23 12:18:00,
2013-09-23 08:23:00,49.5,41.6,29.85,SSE,166,0.0,0.0,74,0.00,,---,0.00,VWS V14.01,2013-09-23 12:23:00,
2013-09-23 08:28:00,49.6,42.0,29.86,SSE,167,0.0,0.0,75,0.00,,---,0.00,VWS V14.01,2013-09-23 12:28:00,
2013-09-23 08:33:00,49.9,42.7,29.85,South,172,0.0,0.0,76,0.00,,---,0.00,VWS V14.01,2013-09-23 12:33:00,
2013-09-23 08:38:00,50.1,41.8,29.86,South,169,0.0,0.0,73,0.00,,---,0.00,VWS V14.01,2013-09-23 12:38:00,
2013-09-23 08:43:00,50.3,42.3,29.86,South,171,0.0,0.0,74,0.00,,---,0.00,VWS V14.01,2013-09-23 12:43:00,
2013-09-23 08:48:00,50.5,41.8,29.85,SSE,159,0.0,0.0,72,0.00,,---,0.00,VWS V14.01,2013-09-23 12:48:00,
2013-09-23 08:53:00,50.6,41.9,29.85,South,182,0.0,0.0,72,0.00,,---,0.00,VWS V14.01,2013-09-23 12:53:00,
2013-09-23 08:58:00,50.7,41.7,29.85,SSE,167,0.0,0.0,71,0.00,,---,0.00,VWS V14.01,2013-09-23 12:58:00,
2013-09-23 09:03:00,50.8,41.8,29.85,South,171,0.0,0.0,71,0.00,,---,0.00,VWS V14.01,2013-09-23 13:03:00,
2013-09-23 09:08:00,51.0,41.9,29.85,SSE,154,0.0,0.0,71,0.00,,---,0.00,VWS V14.01,2013-09-23 13:08:00,
2013-09-23 09:13:00,51.2,41.8,29.85,SSE,148,0.0,0.0,70,0.00,,---,0.00,VWS V14.01,2013-09-23 13:13:00,
2013-09-23 09:18:00,51.5,42.4,29.85,South,169,0.0,0.0,71,0.00,,---,0.00,VWS V14.01,2013-09-23 13:18:00,
2013-09-23 09:23:00,51.7,41.9,29.85,SSE,154,0.0,0.0,69,0.00,,---,0.00,VWS V14.01,2013-09-23 13:23:00,
2013-09-23 09:28:00,51.8,42.7,29.85,SSE,158,0.0,0.0,71,0.00,,---,0.00,VWS V14.01,2013-09-23 13:28:00,
2013-09-23 09:33:00,51.9,42.8,29.85,SSE,163,0.0,0.0,71,0.00,,---,0.00,VWS V14.01,2013-09-23 13:33:00,
2013-09-23 09:38:00,51.9,42.4,29.85,SSE,158,0.0,0.0,70,0.00,,---,0.00,VWS V14.01,2013-09-23 13:38:00,
2013-09-23 09:43:00,52.0,42.5,29.86,SSE,165,0.0,0.0,70,0.00,,---,0.00,VWS V14.01,2013-09-23 13:43:00,
2013-09-23 09:48:00,52.2,42.3,29.86,SE,142,0.0,0.0,69,0.00,,---,0.00,VWS V14.01,2013-09-23 13:48:00,
2013-09-23 09:53:00,52.2,42.7,29.85,SSE,157,0.0,0.0,70,0.00,,---,0.00,VWS V14.01,2013-09-23 13:53:00,
2013-09-23 09:58:00,52.5,42.6,29.86,South,176,0.0,0.0,69,0.00,,---,0.00,VWS V14.01,2013-09-23 13:58:00,
2013-09-23 10:03:00,52.6,42.7,29.86,SE,131,0.0,0.0,69,0.00,,---,0.00,VWS V14.01,2013-09-23 14:03:00,
2013-09-23 10:08:00,52.7,42.8,29.86,SSE,150,0.0,0.0,69,0.00,,---,0.00,VWS V14.01,2013-09-23 14:08:00,
2013-09-23 10:13:00,52.6,42.3,29.85,SSE,148,0.0,0.0,68,0.00,,---,0.00,VWS V14.01,2013-09-23 14:13:00,
2013-09-23 10:18:00,53.0,43.9,29.86,SSE,147,0.0,0.0,71,0.00,,---,0.00,VWS V14.01,2013-09-23 14:18:00,
2013-09-23 10:23:00,53.2,42.5,29.85,SE,138,0.0,0.0,67,0.00,,---,0.00,VWS V14.01,2013-09-23 14:23:00,
2013-09-23 10:28:00,53.3,42.6,29.85,South,169,0.0,0.0,67,0.00,,---,0.00,VWS V14.01,2013-09-23 14:28:00,
2013-09-23 10:33:00,53.3,42.6,29.85,SE,143,0.0,0.0,67,0.00,,---,0.00,VWS V14.01,2013-09-23 14:33:00,
2013-09-23 10:38:00,53.4,43.1,29.85,SSE,165,0.0,0.0,68,0.00,,---,0.00,VWS V14.01,2013-09-23 14:38:00,
2013-09-23 10:43:00,53.3,43.4,29.85,SSE,161,0.0,0.0,69,0.00,,---,0.00,VWS V14.01,2013-09-23 14:43:00,
2013-09-23 10:48:00,53.6,43.3,29.85,SSE,161,0.0,0.0,68,0.00,,---,0.00,VWS V14.01,2013-09-23 14:48:00,
2013-09-23 10:53:00,53.8,43.9,29.85,SSE,159,0.0,0.0,69,0.00,,---,0.00,VWS V14.01,2013-09-23 14:53:00,
2013-09-23 10:58:00,54.1,43.4,29.86,SSE,163,0.0,0.0,67,0.00,,---,0.00,VWS V14.01,2013-09-23 14:58:00,
2013-09-23 11:03:00,54.1,43.8,29.85,SSE,167,0.0,0.0,68,0.00,,---,0.00,VWS V14.01,2013-09-23 15:03:00,
2013-09-23 11:08:00,54.1,44.2,29.86,SSE,167,0.0,0.0,69,0.00,,---,0.00,VWS V14.01,2013-09-23 15:08:00,
2013-09-23 11:13:00,54.2,43.1,29.86,South,180,0.0,0.0,66,0.00,,---,0.00,VWS V14.01,2013-09-23 15:13:00,
2013-09-23 11:18:00,54.1,43.4,29.86,ESE,111,0.0,0.0,67,0.00,,---,0.00,VWS V14.01,2013-09-23 15:18:00,
2013-09-23 11:24:00,54.0,42.5,29.86,SE,132,0.0,0.0,65,0.00,,---,0.00,VWS V14.01,2013-09-23 15:24:00,
2013-09-23 11:29:00,54.0,42.5,29.86,SSE,162,0.0,0.0,65,0.00,,---,0.00,VWS V14.01,2013-09-23 15:29:00,
2013-09-23 11:34:00,54.1,43.4,29.86,SSE,156,0.0,0.0,67,0.00,,---,0.00,VWS V14.01,2013-09-23 15:34:00,
2013-09-23 11:39:00,54.3,44.4,29.86,SSE,165,0.0,0.0,69,0.00,,---,0.00,VWS V14.01,2013-09-23 15:39:00,
2013-09-23 11:44:00,54.3,43.6,29.86,South,178,0.0,0.0,67,0.00,,---,0.00,VWS V14.01,2013-09-23 15:44:00,
2013-09-23 11:49:00,54.5,43.4,29.86,SSE,153,0.0,0.0,66,0.00,,---,0.00,VWS V14.01,2013-09-23 15:49:00,
2013-09-23 11:54:00,54.4,42.9,29.86,South,173,0.0,0.0,65,0.00,,---,0.00,VWS V14.01,2013-09-23 15:54:00,
2013-09-23 11:59:00,54.3,43.2,29.86,SSE,165,0.0,0.0,66,0.00,,---,0.00,VWS V14.01,2013-09-23 15:59:00,
2013-09-23 12:04:00,54.6,43.5,29.86,SSE,152,0.0,0.0,66,0.00,,---,0.00,VWS V14.01,2013-09-23 16:04:00,
2013-09-23 12:09:00,55.0,43.9,29.86,SSE,157,0.0,0.0,66,0.00,,---,0.00,VWS V14.01,2013-09-23 16:09:00,
2013-09-23 12:14:00,55.1,44.0,29.86,SSE,157,0.0,0.0,66,0.00,,---,0.00,VWS V14.01,2013-09-23 16:14:00,
2013-09-23 12:19:00,55.3,44.5,29.86,SSE,156,0.0,0.0,67,0.00,,---,0.00,VWS V14.01,2013-09-23 16:19:00,
2013-09-23 12:24:00,55.3,43.8,29.86,SSE,158,0.0,0.0,65,0.00,,---,0.00,VWS V14.01,2013-09-23 16:24:00,
2013-09-23 12:29:00,55.5,43.9,29.86,SSE,157,0.0,0.0,65,0.00,,---,0.00,VWS V14.01,2013-09-23 16:29:00,
2013-09-23 12:34:00,55.8,43.4,29.86,SSE,155,0.0,0.0,63,0.00,,---,0.00,VWS V14.01,2013-09-23 16:34:00,
2013-09-23 12:39:00,56.0,44.4,29.86,SSE,167,0.0,0.0,65,0.00,,---,0.00,VWS V14.01,2013-09-23 16:39:00,
2013-09-23 12:44:00,55.9,43.5,29.86,SSE,147,0.0,0.0,63,0.00,,---,0.00,VWS V14.01,2013-09-23 16:44:00,
2013-09-23 12:49:00,55.9,44.3,29.86,SSE,163,0.0,0.0,65,0.00,,---,0.00,VWS V14.01,2013-09-23 16:49:00,
2013-09-23 12:54:00,56.2,43.8,29.87,East,80,0.0,0.0,63,0.00,,---,0.00,VWS V14.01,2013-09-23 16:54:00,
2013-09-23 12:59:00,56.8,44.3,29.86,SE,146,0.0,0.0,63,0.00,,---,0.00,VWS V14.01,2013-09-23 16:59:00,
2013-09-23 13:04:00,57.4,44.5,29.86,SSE,155,0.0,0.0,62,0.00,,---,0.00,VWS V14.01,2013-09-23 17:04:00,
2013-09-23 13:09:00,57.3,45.2,29.86,South,177,0.0,0.0,64,0.00,,---,0.00,VWS V14.01,2013-09-23 17:09:00,
2013-09-23 13:14:00,57.6,44.7,29.86,SSE,163,0.0,0.0,62,0.00,,---,0.00,VWS V14.01,2013-09-23 17:14:00,
2013-09-23 13:19:00,57.6,43.8,29.86,SSE,160,0.0,0.0,60,0.00,,---,0.00,VWS V14.01,2013-09-23 17:19:00,
2013-09-23 13:24:00,57.1,44.2,29.86,SSE,157,0.0,0.0,62,0.00,,---,0.00,VWS V14.01,2013-09-23 17:24:00,
2013-09-23 13:29:00,57.1,45.0,29.86,SSE,157,0.0,0.0,64,0.00,,---,0.00,VWS V14.01,2013-09-23 17:29:00,
2013-09-23 13:34:00,57.0,45.0,29.86,SSE,159,0.0,0.0,64,0.00,,---,0.00,VWS V14.01,2013-09-23 17:34:00,
2013-09-23 13:39:00,57.2,45.6,29.85,SSE,165,0.0,0.0,65,0.00,,---,0.00,VWS V14.01,2013-09-23 17:39:00,
2013-09-23 13:44:00,57.2,44.3,29.85,SSE,159,0.0,0.0,62,0.00,,---,0.00,VWS V14.01,2013-09-23 17:44:00,
2013-09-23 13:49:00,57.4,44.1,29.86,SSE,164,0.0,0.0,61,0.00,,---,0.00,VWS V14.01,2013-09-23 17:49:00,
2013-09-23 13:54:00,57.6,45.1,29.86,East,89,0.0,0.0,63,0.00,,---,0.00,VWS V14.01,2013-09-23 17:54:00,
2013-09-23 13:59:00,58.2,45.3,29.86,SSE,166,0.0,0.0,62,0.00,,---,0.00,VWS V14.01,2013-09-23 17:59:00,
2013-09-23 14:04:00,58.9,46.3,29.86,SE,146,0.0,0.0,63,0.00,,---,0.00,VWS V14.01,2013-09-23 18:04:00,
2013-09-23 14:09:00,59.1,44.8,29.86,SSE,154,0.0,0.0,59,0.00,,---,0.00,VWS V14.01,2013-09-23 18:09:00,
2013-09-23 14:14:00,58.3,44.5,29.86,SSE,164,0.0,0.0,60,0.00,,---,0.00,VWS V14.01,2013-09-23 18:14:00,
2013-09-23 14:19:00,57.7,43.9,29.86,SSE,153,0.0,0.0,60,0.00,,---,0.00,VWS V14.01,2013-09-23 18:19:00,
2013-09-23 14:25:00,57.4,44.5,29.86,South,169,0.0,0.0,62,0.00,,---,0.00,VWS V14.01,2013-09-23 18:25:00,
2013-09-23 14:30:00,57.3,44.4,29.86,SSE,162,0.0,0.0,62,0.00,,---,0.00,VWS V14.01,2013-09-23 18:30:00,
2013-09-23 14:35:00,57.5,45.0,29.86,SSE,161,0.0,0.0,63,0.00,,---,0.00,VWS V14.01,2013-09-23 18:35:00,
2013-09-23 14:40:00,57.5,44.6,29.86,SSE,167,0.0,0.0,62,0.00,,---,0.00,VWS V14.01,2013-09-23 18:40:00,
2013-09-23 14:45:00,57.5,45.0,29.86,SSE,152,0.0,0.0,63,0.00,,---,0.00,VWS V14.01,2013-09-23 18:45:00,
2013-09-23 14:50:00,57.6,44.3,29.86,SE,146,0.0,0.0,61,0.00,,---,0.00,VWS V14.01,2013-09-23 18:50:00,
2013-09-23 14:55:00,57.7,45.2,29.86,SSE,165,0.0,0.0,63,0.00,,---,0.00,VWS V14.01,2013-09-23 18:55:00,
2013-09-23 15:00:00,57.8,44.9,29.86,SSE,154,0.0,0.0,62,0.00,,---,0.00,VWS V14.01,2013-09-23 19:00:00,
2013-09-23 15:05:00,58.0,44.6,29.86,SSE,151,0.0,0.0,61,0.00,,---,0.00,VWS V14.01,2013-09-23 19:05:00,
2013-09-23 15:10:00,58.5,45.1,29.86,ESE,108,0.0,0.0,61,0.00,,---,0.00,VWS V14.01,2013-09-23 19:10:00,
2013-09-23 15:15:00,58.8,45.0,29.86,SSE,160,0.0,0.0,60,0.00,,---,0.00,VWS V14.01,2013-09-23 19:15:00,
2013-09-23 15:20:00,58.9,45.5,29.86,South,183,0.0,0.0,61,0.00,,---,0.00,VWS V14.01,2013-09-23 19:20:00,
2013-09-23 15:25:00,58.3,44.9,29.86,SSE,167,0.0,0.0,61,0.00,,---,0.00,VWS V14.01,2013-09-23 19:25:00,
2013-09-23 15:30:00,57.8,44.0,29.86,SSE,167,0.0,0.0,60,0.00,,---,0.00,VWS V14.01,2013-09-23 19:30:00,
2013-09-23 15:35:00,57.5,44.2,29.86,SSE,157,0.0,0.0,61,0.00,,---,0.00,VWS V14.01,2013-09-23 19:35:00,
2013-09-23 15:40:00,57.4,43.6,29.86,SSE,154,0.0,0.0,60,0.00,,---,0.00,VWS V14.01,2013-09-23 19:40:00,
2013-09-23 15:45:00,57.7,45.6,29.86,South,190,0.0,0.0,64,0.00,,---,0.00,VWS V14.01,2013-09-23 19:45:00,
2013-09-23 15:50:00,57.8,44.9,29.86,SSE,161,0.0,0.0,62,0.00,,---,0.00,VWS V14.01,2013-09-23 19:50:00,
2013-09-23 15:55:00,57.7,44.4,29.86,South,170,0.0,0.0,61,0.00,,---,0.00,VWS V14.01,2013-09-23 19:55:00,
2013-09-23 16:00:00,57.7,45.2,29.86,South,170,0.0,0.0,63,0.00,,---,0.00,VWS V14.01,2013-09-23 20:00:00,
2013-09-23 16:05:00,57.6,44.7,29.86,SSE,155,0.0,0.0,62,0.00,,---,0.00,VWS V14.01,2013-09-23 20:05:00,
2013-09-23 16:10:00,57.6,44.7,29.86,SSE,155,0.0,0.0,62,0.00,,---,0.00,VWS V14.01,2013-09-23 20:10:00,
2013-09-23 16:15:00,57.6,44.3,29.86,SSE,163,0.0,0.0,61,0.00,,---,0.00,VWS V14.01,2013-09-23 20:15:00,
2013-09-23 16:20:00,57.7,45.2,29.86,SSE,167,0.0,0.0,63,0.00,,---,0.00,VWS V14.01,2013-09-23 20:20:00,
2013-09-23 16:25:00,57.8,45.7,29.86,SSE,165,0.0,0.0,64,0.00,,---,0.00,VWS V14.01,2013-09-23 20:25:00,
2013-09-23 16:30:00,57.8,44.9,29.86,South,174,0.0,0.0,62,0.00,,---,0.00,VWS V14.01,2013-09-23 20:30:00,
2013-09-23 16:35:00,57.7,44.8,29.86,SSE,163,0.0,0.0,62,0.00,,---,0.00,VWS V14.01,2013-09-23 20:35:00,
2013-09-23 16:40:00,57.9,45.8,29.86,SSE,167,0.0,0.0,64,0.00,,---,0.00,VWS V14.01,2013-09-23 20:40:00,
2013-09-23 16:45:00,58.0,45.9,29.86,South,173,0.0,0.0,64,0.00,,---,0.00,VWS V14.01,2013-09-23 20:45:00,
2013-09-23 16:50:00,57.9,44.1,29.86,SSE,153,0.0,0.0,60,0.00,,---,0.00,VWS V14.01,2013-09-23 20:50:00,
2013-09-23 16:55:00,57.8,44.5,29.87,SSE,161,0.0,0.0,61,0.00,,---,0.00,VWS V14.01,2013-09-23 20:55:00,
2013-09-23 17:01:00,57.5,43.7,29.87,SSE,160,0.0,0.0,60,0.00,,---,0.00,VWS V14.01,2013-09-23 21:01:00,
2013-09-23 17:06:00,57.5,44.2,29.87,SSE,159,0.0,0.0,61,0.00,,---,0.00,VWS V14.01,2013-09-23 21:06:00,
2013-09-23 17:11:00,57.3,44.4,29.87,SSE,159,0.0,0.0,62,0.00,,---,0.00,VWS V14.01,2013-09-23 21:11:00,
2013-09-23 17:16:00,57.3,44.0,29.88,SSE,161,0.0,0.0,61,0.00,,---,0.00,VWS V14.01,2013-09-23 21:16:00,
2013-09-23 17:21:00,57.2,43.9,29.88,SSE,160,0.0,0.0,61,0.00,,---,0.00,VWS V14.01,2013-09-23 21:21:00,
2013-09-23 17:26:00,57.0,45.0,29.88,South,178,0.0,0.0,64,0.00,,---,0.00,VWS V14.01,2013-09-23 21:26:00,
2013-09-23 17:32:00,56.9,44.0,29.88,SSE,164,0.0,0.0,62,0.00,,---,0.00,VWS V14.01,2013-09-23 21:32:00,